createdAt,value
2023-02-07T00:02:12.617Z,102351.99
2023-02-07T00:05:00.620Z,102352.33
2023-02-07T00:07:48.521Z,102349.70
2023-02-07T00:10:36.663Z,102344.81
2023-02-07T00:13:27.477Z,102344.28
2023-02-07T00:16:15.433Z,102346.89
2023-02-07T00:19:03.074Z,102348.13
2023-02-07T00:21:50.684Z,102342.56
2023-02-07T00:24:38.458Z,102340.31
2023-02-07T00:27:26.334Z,102336.48
2023-02-07T00:30:14.425Z,102336.50
2023-02-07T00:33:02.409Z,102335.13
2023-02-07T00:36:01.133Z,102334.95
2023-02-07T00:38:51.750Z,102331.48
2023-02-07T00:41:39.571Z,102331.09
2023-02-07T00:44:28.495Z,102331.23
2023-02-07T00:47:16.461Z,102322.10
2023-02-07T00:50:07.438Z,102326.58
2023-02-07T00:52:55.299Z,102322.86
2023-02-07T00:55:46.716Z,102323.71
2023-02-07T00:58:35.327Z,102318.11
2023-02-07T01:01:24.817Z,102306.22
2023-02-07T01:04:15.573Z,102307.80
2023-02-07T01:07:07.231Z,102296.98
2023-02-07T01:09:54.889Z,102294.52
2023-02-07T01:12:43.463Z,102300.64
2023-02-07T01:15:31.226Z,102302.91
2023-02-07T01:18:20.240Z,102303.79
2023-02-07T01:21:16.606Z,102300.14
2023-02-07T01:24:07.472Z,102300.32
2023-02-07T01:26:55.640Z,102306.09
2023-02-07T01:29:43.498Z,102312.05
2023-02-07T01:32:36.026Z,102312.42
2023-02-07T01:35:24.754Z,102310.70
2023-02-07T01:38:14.209Z,102306.73
2023-02-07T01:41:02.209Z,102301.16
2023-02-07T01:44:07.568Z,102310.05
2023-02-07T01:46:57.880Z,102312.52
2023-02-07T01:49:47.961Z,102317.23
2023-02-07T01:52:41.598Z,102318.64
2023-02-07T01:55:35.081Z,102317.09
2023-02-07T01:58:23.263Z,102323.04
2023-02-07T02:01:22.887Z,102330.57
2023-02-07T02:04:12.870Z,102326.75
2023-02-07T02:10:19.154Z,102326.08
2023-02-07T02:13:21.803Z,102327.45
2023-02-07T02:17:03.433Z,102321.88
2023-02-07T02:20:54.133Z,102308.80
2023-02-07T02:24:38.489Z,102301.86
2023-02-07T02:28:12.015Z,102299.80
2023-02-07T02:31:34.885Z,102299.27
2023-02-07T02:35:22.563Z,102301.37
2023-02-07T02:38:25.928Z,102303.61
2023-02-07T02:41:29.095Z,102305.01
2023-02-07T02:44:28.161Z,102305.17
2023-02-07T02:47:18.241Z,102303.77
2023-02-07T02:50:12.737Z,102304.64
2023-02-07T02:53:01.101Z,102306.03
2023-02-07T02:56:01.264Z,102300.27
2023-02-07T02:59:11.548Z,102298.52
2023-02-07T03:02:08.582Z,102301.83
2023-02-07T03:05:05.154Z,102308.06
2023-02-07T03:08:33.148Z,102305.79
2023-02-07T03:11:24.421Z,102307.88
2023-02-07T03:14:36.912Z,102312.77
2023-02-07T03:17:34.765Z,102307.92
2023-02-07T03:20:33.033Z,102297.80
2023-02-07T03:23:22.113Z,102286.98
2023-02-07T03:26:10.851Z,102280.16
2023-02-07T03:29:01.813Z,102272.48
2023-02-07T03:31:58.055Z,102263.08
2023-02-07T03:34:58.403Z,102255.75
2023-02-07T03:38:01.073Z,102251.04
2023-02-07T03:40:58.493Z,102253.13
2023-02-07T03:43:46.598Z,102250.66
2023-02-07T03:46:38.221Z,102251.33
2023-02-07T03:49:26.330Z,102248.14
2023-02-07T03:52:15.148Z,102245.83
2023-02-07T03:55:03.524Z,102244.55
2023-02-07T03:57:51.519Z,102242.23
2023-02-07T04:00:39.666Z,102235.92
2023-02-07T04:03:27.447Z,102240.20
2023-02-07T04:06:15.891Z,102241.55
2023-02-07T04:09:04.697Z,102240.83
2023-02-07T04:11:52.841Z,102235.56
2023-02-07T04:14:41.017Z,102233.08
2023-02-07T04:17:31.266Z,102232.84
2023-02-07T04:20:19.842Z,102228.10
2023-02-07T04:23:07.518Z,102227.19
2023-02-07T04:25:56.235Z,102230.27
2023-02-07T04:28:44.358Z,102225.55
2023-02-07T04:31:35.519Z,102216.14
2023-02-07T04:34:23.840Z,102213.84
2023-02-07T04:37:11.627Z,102216.77
2023-02-07T04:40:02.524Z,102218.49
2023-02-07T04:42:51.206Z,102217.23
2023-02-07T04:45:39.050Z,102228.88
2023-02-07T04:48:27.790Z,102231.49
2023-02-07T04:51:18.558Z,102225.23
2023-02-07T04:54:06.320Z,102223.14
2023-02-07T04:56:54.158Z,102218.80
2023-02-07T04:59:42.504Z,102216.52
2023-02-07T05:02:30.426Z,102206.23
2023-02-07T05:05:18.391Z,102202.04
2023-02-07T05:08:09.241Z,102201.85
2023-02-07T05:10:57.544Z,102200.09
2023-02-07T05:13:45.741Z,102195.74
2023-02-07T05:16:33.519Z,102203.39
2023-02-07T05:19:21.703Z,102206.86
2023-02-07T05:22:11.168Z,102202.12
2023-02-07T05:24:59.020Z,102201.45
2023-02-07T05:27:47.538Z,102205.42
2023-02-07T05:30:35.347Z,102202.80
2023-02-07T05:33:23.372Z,102208.71
2023-02-07T05:36:11.116Z,102207.16
2023-02-07T05:38:59.482Z,102212.05
2023-02-07T05:41:52.266Z,102203.17
2023-02-07T05:44:39.975Z,102198.65
2023-02-07T05:47:28.255Z,102202.14
2023-02-07T05:50:16.709Z,102200.91
2023-02-07T05:53:05.579Z,102200.89
2023-02-07T05:55:53.262Z,102208.39
2023-02-07T05:58:41.139Z,102216.38
2023-02-07T06:01:28.884Z,102217.60
2023-02-07T06:04:18.575Z,102222.30
2023-02-07T06:07:06.406Z,102215.32
2023-02-07T06:09:54.397Z,102222.66
2023-02-07T06:12:42.768Z,102221.45
2023-02-07T06:15:30.989Z,102228.23
2023-02-07T06:18:19.025Z,102230.16
2023-02-07T06:21:07.013Z,102235.20
2023-02-07T06:23:54.622Z,102235.05
2023-02-07T06:26:43.275Z,102240.27
2023-02-07T06:29:31.522Z,102240.63
2023-02-07T06:32:19.499Z,102244.32
2023-02-07T06:35:08.248Z,102248.73
2023-02-07T06:37:58.152Z,102247.86
2023-02-07T06:40:46.107Z,102255.16
2023-02-07T06:43:34.133Z,102250.64
2023-02-07T06:46:22.117Z,102251.71
2023-02-07T06:49:11.586Z,102260.81
2023-02-07T06:51:59.556Z,102261.55
2023-02-07T06:54:48.066Z,102265.76
2023-02-07T06:57:36.188Z,102270.33
2023-02-07T07:00:27.134Z,102267.23
2023-02-07T07:03:16.360Z,102271.27
2023-02-07T07:06:05.926Z,102270.28
2023-02-07T07:08:53.827Z,102279.20
2023-02-07T07:11:44.114Z,102279.58
2023-02-07T07:14:32.793Z,102284.14
2023-02-07T07:17:20.518Z,102286.98
2023-02-07T07:20:10.579Z,102295.02
2023-02-07T07:22:59.049Z,102292.47
2023-02-07T07:25:47.294Z,102292.89
2023-02-07T07:28:35.209Z,102298.34
2023-02-07T07:31:22.893Z,102296.31
2023-02-07T07:34:10.654Z,102296.89
2023-02-07T07:36:58.638Z,102295.05
2023-02-07T07:39:46.350Z,102296.31
2023-02-07T07:42:35.553Z,102301.08
2023-02-07T07:45:31.023Z,102299.23
2023-02-07T07:48:19.009Z,102295.63
2023-02-07T07:51:07.063Z,102286.96
2023-02-07T07:53:54.869Z,102288.07
2023-02-07T07:56:43.456Z,102287.09
2023-02-07T07:59:31.623Z,102284.70
2023-02-07T08:02:19.268Z,102279.86
2023-02-07T08:05:07.522Z,102279.71
2023-02-07T08:07:55.488Z,102283.90
2023-02-07T08:10:43.290Z,102288.05
2023-02-07T08:13:33.102Z,102290.89
2023-02-07T08:16:21.032Z,102288.67
2023-02-07T08:19:09.033Z,102280.23
2023-02-07T08:21:57.194Z,102275.36
2023-02-07T08:24:46.322Z,102276.65
2023-02-07T08:27:38.912Z,102268.81
2023-02-07T08:30:27.412Z,102269.57
2023-02-07T08:33:16.655Z,102260.17
2023-02-07T08:36:08.628Z,102249.65
2023-02-07T08:38:56.791Z,102244.34
2023-02-07T08:41:44.720Z,102239.48
2023-02-07T08:44:32.682Z,102238.77
2023-02-07T08:47:20.643Z,102239.42
2023-02-07T08:50:09.728Z,102239.70
2023-02-07T08:52:57.563Z,102236.55
2023-02-07T08:55:45.512Z,102235.50
2023-02-07T08:58:35.920Z,102236.59
2023-02-07T09:01:27.149Z,102233.34
2023-02-07T09:04:15.131Z,102230.80
2023-02-07T09:07:08.530Z,102235.66
2023-02-07T09:09:56.558Z,102232.61
2023-02-07T09:12:44.897Z,102231.08
2023-02-07T09:15:38.153Z,102229.83
2023-02-07T09:18:26.941Z,102232.49
2023-02-07T09:21:15.021Z,102234.06
2023-02-07T09:24:03.141Z,102233.56
2023-02-07T09:26:51.272Z,102235.39
2023-02-07T09:29:40.014Z,102229.80
2023-02-07T09:32:28.016Z,102232.79
2023-02-07T09:35:16.119Z,102233.00
2023-02-07T09:38:06.916Z,102232.79
2023-02-07T09:40:56.325Z,102237.23
2023-02-07T09:44:04.244Z,102244.85
2023-02-07T09:47:15.793Z,102245.14
2023-02-07T09:50:16.688Z,102243.91
2023-02-07T09:53:41.659Z,102241.05
2023-02-07T09:56:35.422Z,102239.82
2023-02-07T09:59:48.261Z,102244.88
2023-02-07T10:02:58.517Z,102250.48
2023-02-07T10:06:09.260Z,102261.20
2023-02-07T10:09:14.241Z,102263.15
2023-02-07T10:12:44.625Z,102268.26
2023-02-07T10:15:38.913Z,102268.52
2023-02-07T10:18:53.504Z,102273.50
2023-02-07T10:22:04.650Z,102269.23
2023-02-07T10:25:02.895Z,102277.83
2023-02-07T10:28:23.496Z,102276.08
2023-02-07T10:31:17.632Z,102276.09
2023-02-07T10:34:23.025Z,102280.52
2023-02-07T10:37:25.139Z,102277.66
2023-02-07T10:40:34.796Z,102278.16
2023-02-07T10:43:32.740Z,102268.59
2023-02-07T10:46:22.889Z,102268.72
2023-02-07T10:49:25.053Z,102270.22
2023-02-07T10:52:35.781Z,102273.71
2023-02-07T10:55:48.147Z,102270.36
2023-02-07T10:58:40.517Z,102261.62
2023-02-07T11:01:32.218Z,102269.23
2023-02-07T11:04:38.877Z,102267.89
2023-02-07T11:07:32.438Z,102255.98
2023-02-07T11:10:42.301Z,102252.81
2023-02-07T11:13:32.732Z,102245.12
2023-02-07T11:16:23.928Z,102245.69
2023-02-07T11:19:21.716Z,102239.61
2023-02-07T11:22:22.856Z,102242.17
2023-02-07T11:25:10.568Z,102244.59
2023-02-07T11:28:01.948Z,102246.00
2023-02-07T11:31:07.872Z,102235.79
2023-02-07T11:34:09.410Z,102228.08
2023-02-07T11:37:30.089Z,102221.11
2023-02-07T11:40:29.035Z,102220.58
2023-02-07T11:43:22.198Z,102215.67
2023-02-07T11:46:10.946Z,102216.13
2023-02-07T11:48:59.913Z,102216.52
2023-02-07T11:51:53.066Z,102214.65
2023-02-07T11:54:48.050Z,102209.77
2023-02-07T11:57:36.145Z,102206.84
2023-02-07T12:00:30.180Z,102197.77
2023-02-07T12:03:28.444Z,102201.67
2023-02-07T12:06:29.161Z,102198.21
2023-02-07T12:09:53.702Z,102196.14
2023-02-07T12:13:19.630Z,102195.09
2023-02-07T12:16:34.013Z,102193.47
2023-02-07T12:19:59.077Z,102191.75
2023-02-07T12:23:42.638Z,102186.31
2023-02-07T12:26:43.643Z,102187.11
2023-02-07T12:29:57.328Z,102186.35
2023-02-07T12:33:10.633Z,102182.21
2023-02-07T12:36:36.673Z,102182.85
2023-02-07T12:39:40.180Z,102180.34
2023-02-07T12:42:37.549Z,102178.84
2023-02-07T12:45:55.458Z,102174.17
2023-02-07T12:49:14.417Z,102171.86
2023-02-07T12:52:35.798Z,102171.98
2023-02-07T12:55:38.980Z,102167.09
2023-02-07T12:59:19.951Z,102173.58
2023-02-07T13:02:45.007Z,102176.86
2023-02-07T13:05:53.666Z,102167.57
2023-02-07T13:09:06.486Z,102169.09
2023-02-07T13:12:10.415Z,102175.17
2023-02-07T13:15:22.622Z,102178.41
2023-02-07T13:18:20.396Z,102182.48
2023-02-07T13:21:22.663Z,102179.66
2023-02-07T13:24:15.437Z,102178.92
2023-02-07T13:27:17.486Z,102170.20
2023-02-07T13:30:06.655Z,102181.67
2023-02-07T13:32:54.974Z,102181.63
2023-02-07T13:35:43.494Z,102179.74
2023-02-07T13:38:55.893Z,102181.06
2023-02-07T13:42:15.617Z,102185.21
2023-02-07T13:45:46.563Z,102190.95
2023-02-07T13:49:01.741Z,102189.24
2023-02-07T13:52:01.425Z,102187.91
2023-02-07T13:54:52.665Z,102190.33
2023-02-07T13:58:02.476Z,102195.77
2023-02-07T14:00:53.209Z,102199.80
2023-02-07T14:03:47.505Z,102202.45
2023-02-07T14:06:44.277Z,102205.95
2023-02-07T14:09:42.750Z,102200.67
2023-02-07T14:12:35.157Z,102204.46
2023-02-07T14:15:30.730Z,102200.16
2023-02-07T14:18:49.124Z,102198.48
2023-02-07T14:21:42.551Z,102196.77
2023-02-07T14:24:32.599Z,102203.27
2023-02-07T14:28:02.789Z,102212.36
2023-02-07T14:30:54.049Z,102219.54
2023-02-07T14:33:42.037Z,102223.09
2023-02-07T14:36:29.971Z,102225.39
2023-02-07T14:39:20.504Z,102226.64
2023-02-07T14:42:22.843Z,102229.64
2023-02-07T14:45:20.354Z,102230.88
2023-02-07T14:48:37.082Z,102236.67
2023-02-07T14:51:55.404Z,102237.23
2023-02-07T14:55:07.100Z,102243.02
2023-02-07T14:58:10.195Z,102248.63
2023-02-07T15:00:59.388Z,102251.80
2023-02-07T15:03:59.348Z,102251.45
2023-02-07T15:06:48.286Z,102256.37
2023-02-07T15:09:37.107Z,102262.85
2023-02-07T15:12:27.979Z,102256.88
2023-02-07T15:15:27.264Z,102259.14
2023-02-07T15:18:18.710Z,102263.52
2023-02-07T15:21:07.436Z,102262.48
2023-02-07T15:24:04.835Z,102266.35
2023-02-07T15:27:00.556Z,102266.91
2023-02-07T15:30:00.987Z,102267.64
2023-02-07T15:32:48.823Z,102266.98
2023-02-07T15:35:39.619Z,102269.46
2023-02-07T15:38:28.162Z,102270.17
2023-02-07T15:41:15.896Z,102276.31
2023-02-07T15:44:36.183Z,102279.83
2023-02-07T15:47:33.488Z,102287.55
2023-02-07T15:50:23.938Z,102295.06
2023-02-07T15:53:21.760Z,102298.38
2023-02-07T15:56:09.981Z,102299.95
2023-02-07T15:59:10.796Z,102299.97
2023-02-07T16:02:02.092Z,102300.66
2023-02-07T16:04:50.459Z,102298.75
2023-02-07T16:07:42.581Z,102296.83
2023-02-07T16:10:30.815Z,102289.85
2023-02-07T16:13:22.772Z,102286.00
2023-02-07T16:16:19.936Z,102288.27
2023-02-07T16:19:14.315Z,102292.13
2023-02-07T16:22:13.654Z,102295.42
2023-02-07T16:25:03.088Z,102297.38
2023-02-07T16:27:52.874Z,102298.92
2023-02-07T16:30:41.704Z,102298.93
2023-02-07T16:33:29.932Z,102289.33
2023-02-07T16:36:19.151Z,102303.98
2023-02-07T16:39:08.483Z,102305.58
2023-02-07T16:42:17.236Z,102301.38
2023-02-07T16:45:06.569Z,102296.30
2023-02-07T16:47:55.820Z,102297.02
2023-02-07T16:50:43.884Z,102301.02
2023-02-07T16:53:33.721Z,102307.15
2023-02-07T16:56:28.780Z,102309.06
2023-02-07T16:59:20.649Z,102317.98
2023-02-07T17:02:16.472Z,102329.86
2023-02-07T17:05:04.921Z,102331.09
2023-02-07T17:07:52.780Z,102340.00
2023-02-07T17:10:44.008Z,102342.96
2023-02-07T17:13:32.068Z,102348.90
2023-02-07T17:16:21.011Z,102348.38
2023-02-07T17:19:23.645Z,102350.98
2023-02-07T17:22:11.479Z,102356.94
2023-02-07T17:25:00.932Z,102369.87
2023-02-07T17:27:49.582Z,102368.12
2023-02-07T17:30:41.529Z,102370.04
2023-02-07T17:33:29.542Z,102375.63
2023-02-07T17:36:19.117Z,102376.33
2023-02-07T17:39:07.710Z,102384.20
2023-02-07T17:41:56.590Z,102385.24
2023-02-07T17:44:47.809Z,102384.02
2023-02-07T17:47:35.824Z,102386.30
2023-02-07T17:50:33.791Z,102389.61
2023-02-07T17:53:24.231Z,102389.09
2023-02-07T17:56:24.977Z,102386.99
2023-02-07T17:59:24.590Z,102385.77
2023-02-07T18:02:12.340Z,102382.63
2023-02-07T18:05:02.646Z,102386.30
2023-02-07T18:07:51.662Z,102383.67
2023-02-07T18:10:40.033Z,102381.21
2023-02-07T18:13:27.950Z,102379.99
2023-02-07T18:16:24.036Z,102378.25
2023-02-07T18:19:16.376Z,102373.88
2023-02-07T18:22:04.447Z,102376.31
2023-02-07T18:24:52.525Z,102376.83
2023-02-07T18:27:40.550Z,102378.57
2023-02-07T18:30:29.044Z,102379.79
2023-02-07T18:33:20.328Z,102383.61
2023-02-07T18:36:09.063Z,102386.57
2023-02-07T18:39:00.285Z,102385.35
2023-02-07T18:41:48.624Z,102390.59
2023-02-07T18:44:41.973Z,102397.73
2023-02-07T18:47:32.921Z,102398.60
2023-02-07T18:50:21.373Z,102402.10
2023-02-07T18:53:10.221Z,102402.27
2023-02-07T18:56:23.208Z,102402.79
2023-02-07T18:59:10.882Z,102399.48
2023-02-07T19:01:58.893Z,102402.98
2023-02-07T19:04:47.815Z,102400.88
2023-02-07T19:07:35.750Z,102398.10
2023-02-07T19:10:26.587Z,102398.28
2023-02-07T19:13:14.646Z,102396.52
2023-02-07T19:16:14.100Z,102396.88
2023-02-07T19:19:03.499Z,102399.48
2023-02-07T19:21:51.854Z,102395.63
2023-02-07T19:24:41.827Z,102394.40
2023-02-07T19:27:29.708Z,102390.72
2023-02-07T19:30:17.758Z,102389.83
2023-02-07T19:33:05.320Z,102386.34
2023-02-07T19:35:53.141Z,102384.05
2023-02-07T19:38:41.618Z,102384.42
2023-02-07T19:41:33.394Z,102381.79
2023-02-07T19:44:21.487Z,102381.64
2023-02-07T19:47:10.997Z,102379.70
2023-02-07T19:50:01.410Z,102376.19
2023-02-07T19:52:49.713Z,102370.73
2023-02-07T19:55:39.276Z,102363.86
2023-02-07T19:58:27.133Z,102364.31
2023-02-07T20:01:15.698Z,102368.06
2023-02-07T20:04:05.586Z,102364.31
2023-02-07T20:06:53.810Z,102363.36
2023-02-07T20:09:41.872Z,102365.73
2023-02-07T20:12:29.884Z,102363.91
2023-02-07T20:15:17.981Z,102364.21
2023-02-07T20:18:06.684Z,102364.32
2023-02-07T20:21:00.518Z,102363.90
2023-02-07T20:23:56.833Z,102370.11
2023-02-07T20:26:44.935Z,102372.88
2023-02-07T20:29:33.193Z,102369.52
2023-02-07T20:32:21.403Z,102364.25
2023-02-07T20:35:09.188Z,102371.89
2023-02-07T20:37:56.921Z,102379.35
2023-02-07T20:40:45.013Z,102377.27
2023-02-07T20:43:33.060Z,102377.29
2023-02-07T20:46:21.119Z,102370.15
2023-02-07T20:49:16.593Z,102371.71
2023-02-07T20:52:04.789Z,102375.85
2023-02-07T20:54:53.008Z,102381.23
2023-02-07T20:57:41.327Z,102387.07
2023-02-07T21:00:29.255Z,102383.35
2023-02-07T21:03:17.132Z,102392.73
2023-02-07T21:06:13.970Z,102399.13
2023-02-07T21:09:05.368Z,102397.88
2023-02-07T21:11:54.194Z,102396.45
2023-02-07T21:14:43.865Z,102399.21
2023-02-07T21:17:33.090Z,102403.20
2023-02-07T21:20:23.995Z,102406.15
2023-02-07T21:23:12.162Z,102411.53
2023-02-07T21:26:07.607Z,102414.85
2023-02-07T21:29:01.755Z,102415.39
2023-02-07T21:31:52.664Z,102410.22
2023-02-07T21:34:40.972Z,102407.48
2023-02-07T21:37:33.796Z,102410.33
2023-02-07T21:40:26.195Z,102414.71
2023-02-07T21:43:16.768Z,102414.77
2023-02-07T21:46:10.076Z,102414.64
2023-02-07T21:49:02.558Z,102421.48
2023-02-07T21:51:53.907Z,102427.48
2023-02-07T21:54:44.681Z,102430.14
2023-02-07T21:57:32.238Z,102429.67
2023-02-07T22:00:20.307Z,102430.80
2023-02-07T22:03:08.047Z,102431.89
2023-02-07T22:05:56.136Z,102439.38
2023-02-07T22:08:53.322Z,102435.91
2023-02-07T22:11:44.560Z,102436.80
2023-02-07T22:14:32.610Z,102434.73
2023-02-07T22:17:20.827Z,102434.23
2023-02-07T22:20:09.845Z,102432.16
2023-02-07T22:22:57.866Z,102430.58
2023-02-07T22:25:46.538Z,102428.45
2023-02-07T22:28:34.881Z,102428.41
2023-02-07T22:31:30.169Z,102432.04
2023-02-07T22:34:19.178Z,102433.42
2023-02-07T22:37:10.284Z,102436.23
2023-02-07T22:39:58.254Z,102436.64
2023-02-07T22:42:46.061Z,102439.27
2023-02-07T22:45:36.934Z,102437.50
2023-02-07T22:48:25.247Z,102439.77
2023-02-07T22:51:32.435Z,102444.45
2023-02-07T22:54:20.337Z,102450.84
2023-02-07T22:57:12.276Z,102455.89
2023-02-07T23:00:01.121Z,102452.45
2023-02-07T23:02:49.090Z,102448.65
2023-02-07T23:05:39.925Z,102444.30
2023-02-07T23:08:27.952Z,102448.89
2023-02-07T23:11:17.932Z,102447.66
2023-02-07T23:14:11.925Z,102456.37
2023-02-07T23:17:02.989Z,102460.89
2023-02-07T23:19:50.953Z,102464.70
2023-02-07T23:22:39.103Z,102466.05
2023-02-07T23:25:27.165Z,102468.10
2023-02-07T23:28:15.320Z,102467.04
2023-02-07T23:31:09.946Z,102461.81
2023-02-07T23:33:58.300Z,102462.71
2023-02-07T23:36:49.153Z,102464.46
2023-02-07T23:39:37.046Z,102460.80
2023-02-07T23:42:24.890Z,102466.95
2023-02-07T23:45:12.824Z,102472.14
2023-02-07T23:48:02.497Z,102477.34
2023-02-07T23:50:55.807Z,102477.28
2023-02-07T23:53:47.279Z,102479.73
2023-02-07T23:56:35.006Z,102482.37
2023-02-07T23:59:24.563Z,102487.45
